Time;durP1;ratioP1;P1;durP2;ratioP2;P2;SDS_P1;SDS_P2;PMS_P1;PMS_P2;Temp;Humidity;BMP_temperature;BMP_pressure;BME280_temperature;BME280_humidity;BME280_pressure;Samples;Min_cycle;Max_cycle;Signal;HPM_P1;HPM_P2
2023/06/10 00:00:34;;;;;;;2.92;2.05;;;;;;;;;;5070475;28;20076;-62
2023/06/10 00:03:04;;;;;;;4.47;2.38;;;;;;;;;;5050872;28;20052;-64
2023/06/10 00:05:34;;;;;;;4.07;2.67;;;;;;;;;;5050268;28;20057;-63
2023/06/10 00:08:06;;;;;;;3.25;2.00;;;;;;;;;;5050558;28;20053;-63
2023/06/10 00:10:35;;;;;;;3.00;2.00;;;;;;;;;;5050581;28;20068;-61
2023/06/10 00:13:04;;;;;;;5.20;2.50;;;;;;;;;;5051017;28;20110;-63
2023/06/10 00:15:33;;;;;;;5.30;2.80;;;;;;;;;;5050060;28;20486;-62
2023/06/10 00:18:03;;;;;;;5.13;2.58;;;;;;;;;;5050021;28;20076;-64
2023/06/10 00:20:35;;;;;;;4.80;2.40;;;;;;;;;;5048098;28;20052;-62
2023/06/10 00:23:06;;;;;;;3.05;2.40;;;;;;;;;;5049786;28;20096;-62
2023/06/10 00:25:34;;;;;;;3.35;2.20;;;;;;;;;;5050047;28;20122;-62
2023/06/10 00:28:03;;;;;;;5.70;2.45;;;;;;;;;;5050241;28;20045;-63
2023/06/10 00:30:31;;;;;;;4.07;2.40;;;;;;;;;;5050242;28;20128;-61
2023/06/10 00:32:59;;;;;;;4.90;3.08;;;;;;;;;;5049991;28;20088;-64
2023/06/10 00:35:28;;;;;;;6.03;2.72;;;;;;;;;;5049542;28;20053;-62
2023/06/10 00:37:58;;;;;;;5.60;2.88;;;;;;;;;;5050424;28;20480;-61
2023/06/10 00:40:26;;;;;;;5.18;3.20;;;;;;;;;;5049711;28;20536;-63
2023/06/10 00:42:54;;;;;;;5.95;2.75;;;;;;;;;;5050087;28;20045;-62
2023/06/10 00:45:23;;;;;;;4.53;2.75;;;;;;;;;;5049362;28;20048;-62
2023/06/10 00:47:52;;;;;;;4.38;2.72;;;;;;;;;;5049970;28;20093;-61
2023/06/10 00:50:20;;;;;;;5.07;2.92;;;;;;;;;;5050165;28;20406;-61
2023/06/10 00:52:50;;;;;;;3.60;2.30;;;;;;;;;;5049448;28;20060;-62
2023/06/10 00:55:23;;;;;;;5.60;2.75;;;;;;;;;;5046589;28;20037;-64
2023/06/10 00:57:52;;;;;;;4.97;2.53;;;;;;;;;;5050008;28;20391;-62
2023/06/10 01:00:23;;;;;;;6.18;2.72;;;;;;;;;;5049822;28;20041;-62
2023/06/10 01:02:52;;;;;;;3.85;2.42;;;;;;;;;;5083636;22;20114;-62
2023/06/10 01:05:21;;;;;;;4.22;2.60;;;;;;;;;;5073680;28;20045;-64
2023/06/10 01:07:53;;;;;;;6.28;3.05;;;;;;;;;;5072589;28;20481;-64
2023/06/10 01:10:22;;;;;;;5.75;2.80;;;;;;;;;;5073378;28;20101;-63
2023/06/10 01:12:57;;;;;;;3.90;2.72;;;;;;;;;;5072768;28;20057;-62
2023/06/10 01:15:25;;;;;;;4.13;2.53;;;;;;;;;;5072612;28;20489;-62
2023/06/10 01:17:57;;;;;;;7.35;3.25;;;;;;;;;;5072448;28;20048;-63
2023/06/10 01:20:27;;;;;;;4.47;2.95;;;;;;;;;;5073332;28;20358;-63
2023/06/10 01:22:57;;;;;;;6.32;3.25;;;;;;;;;;5073218;28;20045;-62
2023/06/10 01:25:28;;;;;;;4.75;2.67;;;;;;;;;;5073069;28;20131;-62
2023/06/10 01:28:02;;;;;;;5.78;3.17;;;;;;;;;;5072787;28;20074;-62
2023/06/10 01:30:33;;;;;;;5.88;3.20;;;;;;;;;;5073266;28;20103;-64
2023/06/10 01:33:02;;;;;;;5.53;2.60;;;;;;;;;;5070516;28;20083;-63
2023/06/10 01:35:32;;;;;;;5.80;2.60;;;;;;;;;;5056532;28;20094;-62
2023/06/10 01:38:03;;;;;;;4.95;2.85;;;;;;;;;;5068698;28;20064;-63
2023/06/10 01:40:32;;;;;;;4.05;2.65;;;;;;;;;;5069478;28;20052;-62
2023/06/10 01:43:01;;;;;;;3.47;2.47;;;;;;;;;;5069113;28;20074;-63
2023/06/10 01:45:29;;;;;;;4.63;2.67;;;;;;;;;;5068984;28;20052;-64
2023/06/10 01:47:57;;;;;;;4.28;2.45;;;;;;;;;;5051646;28;20091;-63
2023/06/10 01:50:26;;;;;;;4.53;2.95;;;;;;;;;;5067799;28;20048;-63
2023/06/10 01:52:54;;;;;;;6.40;2.90;;;;;;;;;;5069517;28;20052;-64
2023/06/10 01:55:24;;;;;;;4.15;2.45;;;;;;;;;;5068474;28;20040;-63
2023/06/10 01:57:52;;;;;;;3.40;2.42;;;;;;;;;;5059887;28;20099;-64
2023/06/10 02:00:21;;;;;;;4.85;2.78;;;;;;;;;;5060598;28;20056;-63
2023/06/10 02:02:49;;;;;;;5.85;3.25;;;;;;;;;;5069330;28;21938;-62
2023/06/10 02:05:18;;;;;;;3.85;2.80;;;;;;;;;;5071436;28;20041;-63
2023/06/10 02:07:46;;;;;;;4.10;2.83;;;;;;;;;;5064685;28;20041;-63
2023/06/10 02:10:15;;;;;;;4.97;2.85;;;;;;;;;;5072028;28;20471;-63
2023/06/10 02:12:44;;;;;;;5.53;3.03;;;;;;;;;;5072663;28;20103;-63
2023/06/10 02:15:13;;;;;;;5.80;3.08;;;;;;;;;;5072386;28;20458;-63
2023/06/10 02:17:41;;;;;;;5.22;2.92;;;;;;;;;;5067465;28;20118;-63
2023/06/10 02:20:10;;;;;;;4.97;2.70;;;;;;;;;;5072607;28;20059;-63
2023/06/10 02:22:39;;;;;;;5.13;2.85;;;;;;;;;;5072127;28;20041;-64
2023/06/10 02:25:08;;;;;;;7.30;2.75;;;;;;;;;;5072122;28;20072;-64
2023/06/10 02:27:36;;;;;;;3.33;2.50;;;;;;;;;;5069094;28;20048;-63
2023/06/10 02:30:09;;;;;;;4.82;3.03;;;;;;;;;;5072800;28;20139;-63
2023/06/10 02:32:37;;;;;;;3.83;2.20;;;;;;;;;;5072243;28;20323;-63
2023/06/10 02:35:06;;;;;;;5.15;2.67;;;;;;;;;;5061270;28;20152;-62
2023/06/10 02:37:35;;;;;;;4.15;2.80;;;;;;;;;;5071508;28;20063;-63
2023/06/10 02:40:03;;;;;;;4.15;2.33;;;;;;;;;;5072762;28;20415;-62
2023/06/10 02:42:32;;;;;;;3.88;2.50;;;;;;;;;;5072134;28;20057;-62
2023/06/10 02:45:03;;;;;;;5.65;2.65;;;;;;;;;;5071566;28;20060;-63
2023/06/10 02:47:32;;;;;;;5.35;2.80;;;;;;;;;;5054883;28;20516;-64
2023/06/10 02:50:03;;;;;;;5.03;2.90;;;;;;;;;;5067152;28;20091;-63
2023/06/10 02:52:32;;;;;;;5.13;2.58;;;;;;;;;;5072137;28;20529;-62
2023/06/10 02:55:01;;;;;;;3.75;2.40;;;;;;;;;;5071687;28;20408;-62
2023/06/10 02:57:29;;;;;;;5.68;2.78;;;;;;;;;;5067204;28;20402;-63
2023/06/10 02:59:58;;;;;;;4.38;2.83;;;;;;;;;;5057155;28;20076;-63
2023/06/10 03:02:28;;;;;;;5.53;2.97;;;;;;;;;;5067616;28;20099;-62
2023/06/10 03:04:58;;;;;;;5.32;3.08;;;;;;;;;;5071430;28;20040;-62
2023/06/10 03:07:26;;;;;;;4.60;2.90;;;;;;;;;;5067795;28;20049;-62
2023/06/10 03:09:54;;;;;;;4.40;2.60;;;;;;;;;;5070138;28;20505;-64
2023/06/10 03:12:23;;;;;;;4.15;2.88;;;;;;;;;;5071481;28;20132;-64
2023/06/10 03:14:51;;;;;;;5.15;3.10;;;;;;;;;;5070710;28;20056;-64
2023/06/10 03:17:20;;;;;;;4.38;2.78;;;;;;;;;;5068025;28;20072;-62
2023/06/10 03:19:48;;;;;;;6.38;3.58;;;;;;;;;;5058316;28;20056;-62
2023/06/10 03:22:18;;;;;;;5.70;2.92;;;;;;;;;;5071416;28;20131;-63
2023/06/10 03:24:50;;;;;;;4.57;2.67;;;;;;;;;;5070874;28;20080;-64
2023/06/10 03:27:18;;;;;;;4.70;2.92;;;;;;;;;;5070168;28;20124;-63
2023/06/10 03:29:46;;;;;;;5.55;2.75;;;;;;;;;;5071439;28;20056;-62
2023/06/10 03:32:15;;;;;;;6.25;3.85;;;;;;;;;;5070961;28;20101;-62
2023/06/10 03:34:44;;;;;;;5.35;2.85;;;;;;;;;;5062439;28;20045;-63
2023/06/10 03:37:13;;;;;;;8.10;3.85;;;;;;;;;;5065092;28;20056;-63
2023/06/10 03:39:42;;;;;;;4.97;2.83;;;;;;;;;;5060876;28;20133;-64
2023/06/10 03:42:11;;;;;;;5.32;2.88;;;;;;;;;;5071512;28;20462;-62
2023/06/10 03:44:39;;;;;;;5.97;3.70;;;;;;;;;;5070449;28;20048;-62
2023/06/10 03:47:08;;;;;;;9.98;3.35;;;;;;;;;;5069591;28;20488;-64
2023/06/10 03:49:36;;;;;;;7.88;3.70;;;;;;;;;;5061316;28;20048;-63
2023/06/10 03:52:05;;;;;;;5.20;3.10;;;;;;;;;;5070675;28;20048;-64
2023/06/10 03:54:34;;;;;;;6.32;3.45;;;;;;;;;;5070835;28;20102;-62
2023/06/10 03:57:03;;;;;;;6.10;3.00;;;;;;;;;;5070786;28;20114;-62
2023/06/10 03:59:32;;;;;;;5.60;3.50;;;;;;;;;;5063699;28;20080;-62
2023/06/10 04:02:01;;;;;;;7.45;3.22;;;;;;;;;;5070599;28;20082;-63
2023/06/10 04:04:30;;;;;;;7.03;3.38;;;;;;;;;;5069682;28;20082;-62
2023/06/10 04:06:59;;;;;;;4.70;2.92;;;;;;;;;;5071063;28;20095;-62
2023/06/10 04:09:27;;;;;;;5.78;3.53;;;;;;;;;;5064325;28;20398;-63
2023/06/10 04:11:55;;;;;;;5.65;2.92;;;;;;;;;;5070540;28;20048;-63
2023/06/10 04:14:25;;;;;;;7.63;3.35;;;;;;;;;;5070627;28;20095;-64
2023/06/10 04:16:54;;;;;;;6.70;3.72;;;;;;;;;;5069843;28;20049;-64
2023/06/10 04:19:22;;;;;;;6.43;3.58;;;;;;;;;;5067464;28;20497;-63
2023/06/10 04:21:51;;;;;;;7.00;3.60;;;;;;;;;;5070569;28;20079;-62
2023/06/10 04:24:19;;;;;;;5.35;3.20;;;;;;;;;;5070530;28;20040;-63
2023/06/10 04:26:48;;;;;;;6.93;3.13;;;;;;;;;;5069542;28;20049;-65
2023/06/10 04:29:16;;;;;;;6.10;3.88;;;;;;;;;;5068729;28;20048;-64
2023/06/10 04:31:46;;;;;;;7.43;3.53;;;;;;;;;;5070654;28;20088;-63
2023/06/10 04:34:15;;;;;;;10.00;4.03;;;;;;;;;;5066269;28;20131;-63
2023/06/10 04:36:43;;;;;;;6.13;3.03;;;;;;;;;;5061918;28;20128;-62
2023/06/10 04:39:11;;;;;;;5.72;3.10;;;;;;;;;;5058337;28;20178;-63
2023/06/10 04:41:40;;;;;;;11.02;3.38;;;;;;;;;;5070149;28;20144;-64
2023/06/10 04:44:08;;;;;;;7.35;3.50;;;;;;;;;;5070178;28;20048;-63
2023/06/10 04:46:36;;;;;;;6.70;3.53;;;;;;;;;;5069462;28;20437;-62
2023/06/10 04:49:06;;;;;;;6.32;3.20;;;;;;;;;;5067099;28;20048;-63
2023/06/10 04:51:35;;;;;;;8.18;3.50;;;;;;;;;;5069864;28;20075;-64
2023/06/10 04:54:04;;;;;;;6.88;3.63;;;;;;;;;;5070008;28;20425;-63
2023/06/10 04:56:32;;;;;;;6.80;3.70;;;;;;;;;;5069499;28;20055;-62
2023/06/10 04:59:01;;;;;;;6.65;3.67;;;;;;;;;;5062576;28;20479;-63
2023/06/10 05:01:30;;;;;;;6.43;3.25;;;;;;;;;;5070179;28;20057;-65
2023/06/10 05:03:58;;;;;;;6.90;3.95;;;;;;;;;;5069976;28;20053;-64
2023/06/10 05:06:28;;;;;;;7.60;3.72;;;;;;;;;;5068299;28;20044;-63
2023/06/10 05:08:56;;;;;;;7.00;3.85;;;;;;;;;;5070406;28;20107;-63
2023/06/10 05:11:25;;;;;;;5.55;3.40;;;;;;;;;;5069947;28;20132;-63
2023/06/10 05:13:53;;;;;;;5.28;3.33;;;;;;;;;;5070264;28;20048;-65
2023/06/10 05:16:21;;;;;;;4.85;2.83;;;;;;;;;;5069122;28;20080;-65
2023/06/10 05:18:52;;;;;;;8.02;4.15;;;;;;;;;;5067261;28;20135;-63
2023/06/10 05:21:21;;;;;;;6.55;4.22;;;;;;;;;;5070000;28;20136;-63
2023/06/10 05:23:51;;;;;;;6.03;3.40;;;;;;;;;;5070334;28;20447;-63
2023/06/10 05:26:19;;;;;;;7.93;3.50;;;;;;;;;;5069036;28;20071;-63
2023/06/10 05:28:47;;;;;;;9.35;4.20;;;;;;;;;;5069742;28;20052;-64
2023/06/10 05:31:16;;;;;;;5.78;3.22;;;;;;;;;;5069822;28;20052;-64
2023/06/10 05:33:44;;;;;;;10.25;4.50;;;;;;;;;;5069663;28;20044;-64
2023/06/10 05:36:13;;;;;;;5.78;3.40;;;;;;;;;;5057008;28;20061;-63
2023/06/10 05:38:41;;;;;;;8.05;4.07;;;;;;;;;;5059640;28;20089;-63
2023/06/10 05:41:11;;;;;;;8.45;4.03;;;;;;;;;;5073174;28;20041;-64
2023/06/10 05:43:40;;;;;;;6.80;3.95;;;;;;;;;;5073056;28;20041;-64
2023/06/10 05:46:08;;;;;;;7.60;4.45;;;;;;;;;;5072105;28;20060;-64
2023/06/10 05:48:36;;;;;;;9.95;4.35;;;;;;;;;;5065193;28;20533;-63
2023/06/10 05:51:05;;;;;;;11.30;4.30;;;;;;;;;;5073526;28;20049;-65
2023/06/10 05:53:33;;;;;;;6.45;3.90;;;;;;;;;;5072801;28;20106;-63
2023/06/10 05:56:01;;;;;;;10.55;4.57;;;;;;;;;;5072579;28;20504;-63
2023/06/10 05:58:31;;;;;;;8.98;4.22;;;;;;;;;;5066903;28;20129;-64
2023/06/10 06:00:59;;;;;;;8.52;3.75;;;;;;;;;;5073510;28;20048;-64
2023/06/10 06:03:28;;;;;;;10.32;4.10;;;;;;;;;;5072580;28;20052;-64
2023/06/10 06:05:57;;;;;;;7.28;3.72;;;;;;;;;;5072332;28;20044;-63
2023/06/10 06:08:25;;;;;;;8.35;3.67;;;;;;;;;;5069364;28;20503;-63
2023/06/10 06:10:53;;;;;;;6.45;3.20;;;;;;;;;;5073053;28;20313;-63
2023/06/10 06:13:22;;;;;;;7.13;4.15;;;;;;;;;;5059342;28;20091;-64
2023/06/10 06:15:52;;;;;;;8.05;3.92;;;;;;;;;;5072423;28;20118;-63
2023/06/10 06:18:20;;;;;;;7.00;3.90;;;;;;;;;;5071155;28;20048;-63
2023/06/10 06:20:49;;;;;;;4.72;2.75;;;;;;;;;;5072659;28;20076;-63
2023/06/10 06:23:17;;;;;;;7.93;3.45;;;;;;;;;;5072300;28;20040;-63
2023/06/10 06:25:45;;;;;;;6.30;3.53;;;;;;;;;;5071893;28;20044;-64
2023/06/10 06:28:14;;;;;;;5.25;2.97;;;;;;;;;;5064921;28;20056;-65
2023/06/10 06:30:42;;;;;;;6.63;3.05;;;;;;;;;;5072340;28;20508;-63
2023/06/10 06:33:12;;;;;;;8.18;3.63;;;;;;;;;;5071918;28;20118;-65
2023/06/10 06:35:41;;;;;;;4.72;2.67;;;;;;;;;;5059632;28;20079;-64
2023/06/10 06:38:09;;;;;;;7.57;3.55;;;;;;;;;;5066015;28;20045;-63
2023/06/10 06:40:37;;;;;;;7.18;4.15;;;;;;;;;;5069927;28;20051;-63
2023/06/10 06:43:06;;;;;;;6.57;3.78;;;;;;;;;;5072151;28;20106;-64
2023/06/10 06:45:34;;;;;;;5.43;3.30;;;;;;;;;;5071730;28;20052;-65
2023/06/10 06:48:03;;;;;;;6.80;3.22;;;;;;;;;;5066058;28;20501;-63
2023/06/10 06:50:33;;;;;;;6.28;3.40;;;;;;;;;;5071785;28;20415;-63
2023/06/10 06:53:01;;;;;;;6.78;2.50;;;;;;;;;;5072117;28;20448;-63
2023/06/10 06:55:29;;;;;;;4.40;2.55;;;;;;;;;;5058803;28;20052;-64
2023/06/10 06:57:58;;;;;;;8.52;3.55;;;;;;;;;;5067324;28;20075;-64
2023/06/10 07:00:26;;;;;;;6.30;3.67;;;;;;;;;;5072246;28;20570;-64
2023/06/10 07:02:55;;;;;;;7.50;3.40;;;;;;;;;;5063092;28;20438;-63
2023/06/10 07:05:25;;;;;;;6.22;2.83;;;;;;;;;;5071854;28;20044;-63
2023/06/10 07:07:55;;;;;;;6.85;3.15;;;;;;;;;;5070002;28;20547;-64
2023/06/10 07:10:24;;;;;;;9.35;3.70;;;;;;;;;;5071986;28;20064;-66
2023/06/10 07:12:53;;;;;;;5.70;3.13;;;;;;;;;;5071444;28;20049;-64
2023/06/10 07:15:21;;;;;;;7.28;2.88;;;;;;;;;;5071726;28;20102;-63
2023/06/10 07:17:50;;;;;;;6.95;3.72;;;;;;;;;;5068171;28;20045;-63
2023/06/10 07:20:18;;;;;;;5.60;3.00;;;;;;;;;;5062912;28;20076;-65
2023/06/10 07:22:47;;;;;;;7.13;3.00;;;;;;;;;;5071595;28;20049;-64
2023/06/10 07:25:17;;;;;;;6.85;3.60;;;;;;;;;;5070897;28;20448;-64
2023/06/10 07:27:45;;;;;;;10.07;3.60;;;;;;;;;;5068359;28;20134;-64
2023/06/10 07:30:14;;;;;;;7.43;3.30;;;;;;;;;;5064066;28;20532;-63
2023/06/10 07:32:43;;;;;;;5.50;3.25;;;;;;;;;;5071567;28;20048;-65
2023/06/10 07:35:12;;;;;;;5.20;3.53;;;;;;;;;;5058365;28;20049;-65
2023/06/10 07:37:40;;;;;;;8.07;3.75;;;;;;;;;;5068719;28;20131;-65
2023/06/10 07:40:09;;;;;;;5.47;3.08;;;;;;;;;;5064597;28;20168;-64
2023/06/10 07:42:39;;;;;;;8.07;3.90;;;;;;;;;;5058310;28;20055;-65
2023/06/10 07:45:08;;;;;;;5.40;3.17;;;;;;;;;;5070039;28;20106;-64
2023/06/10 07:47:37;;;;;;;5.28;3.33;;;;;;;;;;5069377;28;20747;-64
2023/06/10 07:50:05;;;;;;;6.93;3.60;;;;;;;;;;5065395;28;20125;-65
2023/06/10 07:52:34;;;;;;;5.78;3.90;;;;;;;;;;5071582;28;20174;-66
2023/06/10 07:55:02;;;;;;;6.55;4.05;;;;;;;;;;5070438;28;20048;-65
2023/06/10 07:57:31;;;;;;;6.90;3.30;;;;;;;;;;5070681;28;20088;-63
2023/06/10 08:00:03;;;;;;;6.75;3.80;;;;;;;;;;5067311;28;20049;-65
2023/06/10 08:02:31;;;;;;;5.78;3.53;;;;;;;;;;5070172;28;20475;-65
2023/06/10 08:05:00;;;;;;;8.95;3.78;;;;;;;;;;5069913;28;20511;-64
2023/06/10 08:07:29;;;;;;;4.97;2.90;;;;;;;;;;5070792;28;20413;-65
2023/06/10 08:09:57;;;;;;;7.45;3.40;;;;;;;;;;5069455;28;20469;-66
2023/06/10 08:12:26;;;;;;;5.75;3.28;;;;;;;;;;5070731;28;20044;-65
2023/06/10 08:14:54;;;;;;;5.03;2.97;;;;;;;;;;5069742;28;20052;-66
2023/06/10 08:17:24;;;;;;;5.63;3.38;;;;;;;;;;5070620;28;20102;-64
2023/06/10 08:19:52;;;;;;;5.75;3.33;;;;;;;;;;5057755;28;20049;-65
2023/06/10 08:22:21;;;;;;;5.22;2.83;;;;;;;;;;5070890;28;20093;-65
2023/06/10 08:24:49;;;;;;;5.53;2.97;;;;;;;;;;5069781;28;20062;-64
2023/06/10 08:27:18;;;;;;;5.65;3.15;;;;;;;;;;5070149;28;20044;-66
2023/06/10 08:29:46;;;;;;;5.70;3.20;;;;;;;;;;5059325;28;20072;-64
2023/06/10 08:32:14;;;;;;;4.10;2.65;;;;;;;;;;5069961;28;20405;-65
2023/06/10 08:34:44;;;;;;;5.13;2.85;;;;;;;;;;5062118;28;20049;-65
2023/06/10 08:37:13;;;;;;;5.28;2.63;;;;;;;;;;5066392;28;20126;-66
2023/06/10 08:39:41;;;;;;;3.88;2.58;;;;;;;;;;5062383;28;20048;-67
2023/06/10 08:42:12;;;;;;;4.55;2.78;;;;;;;;;;5070256;28;20078;-65
2023/06/10 08:44:41;;;;;;;3.65;2.35;;;;;;;;;;5069874;28;20080;-65
2023/06/10 08:47:14;;;;;;;2.38;1.90;;;;;;;;;;5070414;28;20084;-65
2023/06/10 08:49:45;;;;;;;5.95;2.55;;;;;;;;;;5064250;28;20484;-65
2023/06/10 08:52:16;;;;;;;5.28;2.67;;;;;;;;;;5070098;28;20040;-66
2023/06/10 08:54:45;;;;;;;3.92;2.50;;;;;;;;;;5069851;28;20076;-66
2023/06/10 08:57:14;;;;;;;3.65;2.30;;;;;;;;;;5070143;28;20084;-65
2023/06/10 08:59:42;;;;;;;4.65;3.13;;;;;;;;;;5066729;28;20127;-67
2023/06/10 09:02:11;;;;;;;3.45;2.47;;;;;;;;;;5070190;28;20072;-65
2023/06/10 09:04:39;;;;;;;4.80;2.65;;;;;;;;;;5069351;28;20084;-65
2023/06/10 09:07:09;;;;;;;3.58;2.75;;;;;;;;;;5069702;28;20049;-65
2023/06/10 09:09:38;;;;;;;5.22;2.53;;;;;;;;;;5069722;28;20052;-67
2023/06/10 09:12:06;;;;;;;4.05;2.40;;;;;;;;;;5070375;28;20201;-66
2023/06/10 09:14:35;;;;;;;3.45;2.58;;;;;;;;;;5070921;28;20564;-67
2023/06/10 09:17:03;;;;;;;4.57;2.50;;;;;;;;;;5073951;28;20048;-66
2023/06/10 09:19:32;;;;;;;4.72;2.80;;;;;;;;;;5061338;28;20456;-65
2023/06/10 09:22:00;;;;;;;4.35;2.38;;;;;;;;;;5074364;28;20053;-67
2023/06/10 09:24:30;;;;;;;4.43;2.58;;;;;;;;;;5073580;28;20098;-66
2023/06/10 09:27:04;;;;;;;3.10;2.08;;;;;;;;;;5073499;28;20098;-66
2023/06/10 09:29:34;;;;;;;4.68;2.50;;;;;;;;;;5063663;28;20492;-66
2023/06/10 09:32:03;;;;;;;6.18;2.65;;;;;;;;;;5074249;28;20052;-66
2023/06/10 09:34:31;;;;;;;4.47;2.47;;;;;;;;;;5067165;28;20048;-66
2023/06/10 09:36:59;;;;;;;5.13;2.50;;;;;;;;;;5068084;28;20056;-67
2023/06/10 09:39:28;;;;;;;3.63;2.20;;;;;;;;;;5066008;28;20514;-66
2023/06/10 09:41:57;;;;;;;3.15;2.10;;;;;;;;;;5073062;28;20060;-66
2023/06/10 09:44:26;;;;;;;3.85;2.40;;;;;;;;;;5074085;28;20056;-66
2023/06/10 09:46:56;;;;;;;5.00;2.33;;;;;;;;;;5073126;28;20086;-66
2023/06/10 09:49:24;;;;;;;3.95;2.45;;;;;;;;;;5068488;28;20093;-67
2023/06/10 09:51:53;;;;;;;5.32;1.95;;;;;;;;;;5073206;28;20501;-66
2023/06/10 09:54:21;;;;;;;3.83;2.10;;;;;;;;;;5073054;28;20071;-64
2023/06/10 09:56:50;;;;;;;5.30;2.45;;;;;;;;;;5072794;28;20364;-65
2023/06/10 09:59:29;;;;;;;2.90;1.98;;;;;;;;;;5070832;28;20048;-66
2023/06/10 10:01:58;;;;;;;3.88;2.08;;;;;;;;;;5065215;28;20090;-66
2023/06/10 10:04:26;;;;;;;2.30;1.88;;;;;;;;;;5072681;28;20059;-65
2023/06/10 10:06:55;;;;;;;4.20;2.63;;;;;;;;;;5051164;28;20541;-65
2023/06/10 10:09:23;;;;;;;3.08;2.20;;;;;;;;;;5072990;28;20074;-65
2023/06/10 10:11:53;;;;;;;6.00;2.78;;;;;;;;;;5073395;28;20497;-65
2023/06/10 10:14:23;;;;;;;4.72;2.30;;;;;;;;;;5072705;28;20052;-64
2023/06/10 10:16:52;;;;;;;4.78;1.90;;;;;;;;;;5072460;28;20468;-66
2023/06/10 10:19:25;;;;;;;3.42;2.20;;;;;;;;;;5061376;28;20510;-66
2023/06/10 10:21:54;;;;;;;4.07;1.83;;;;;;;;;;5072849;28;20044;-66
2023/06/10 10:24:24;;;;;;;4.18;2.33;;;;;;;;;;5072568;28;20088;-67
2023/06/10 10:26:54;;;;;;;2.60;2.15;;;;;;;;;;5072072;28;20070;-65
2023/06/10 10:29:26;;;;;;;3.25;2.33;;;;;;;;;;5063519;28;20048;-66
2023/06/10 10:31:56;;;;;;;4.85;2.50;;;;;;;;;;5072578;28;20135;-66
2023/06/10 10:34:28;;;;;;;3.53;2.00;;;;;;;;;;5067371;28;20055;-66
2023/06/10 10:36:57;;;;;;;3.25;2.08;;;;;;;;;;5058522;28;20483;-66
2023/06/10 10:39:28;;;;;;;2.53;1.85;;;;;;;;;;5071077;28;20068;-66
2023/06/10 10:41:56;;;;;;;2.75;1.90;;;;;;;;;;5072246;28;20094;-67
2023/06/10 10:44:26;;;;;;;4.40;2.00;;;;;;;;;;5072637;28;20041;-65
2023/06/10 10:46:55;;;;;;;4.32;3.00;;;;;;;;;;5072310;28;20098;-66
2023/06/10 10:49:24;;;;;;;3.05;2.10;;;;;;;;;;5068276;28;20048;-66
2023/06/10 10:51:58;;;;;;;2.88;2.00;;;;;;;;;;5072198;28;20490;-67
2023/06/10 10:54:31;;;;;;;2.95;1.88;;;;;;;;;;5072030;28;20532;-67
2023/06/10 10:57:11;;;;;;;2.28;1.77;;;;;;;;;;5055131;28;20110;-66
2023/06/10 11:00:04;;;;;;;2.42;1.88;;;;;;;;;;5070481;28;20056;-66
2023/06/10 11:02:39;;;;;;;3.70;1.70;;;;;;;;;;5068479;28;20067;-67
2023/06/10 11:05:09;;;;;;;2.20;1.60;;;;;;;;;;5071586;28;20076;-67
2023/06/10 11:07:37;;;;;;;3.28;2.30;;;;;;;;;;5072369;28;20049;-67
2023/06/10 11:10:08;;;;;;;2.90;1.95;;;;;;;;;;5058567;28;20044;-66
2023/06/10 11:12:57;;;;;;;2.50;1.50;;;;;;;;;;5071425;28;20048;-67
2023/06/10 11:15:26;;;;;;;2.55;1.70;;;;;;;;;;5054556;28;20477;-66
2023/06/10 11:18:12;;;;;;;2.83;1.73;;;;;;;;;;5071272;28;20097;-66
2023/06/10 11:20:45;;;;;;;1.75;1.42;;;;;;;;;;5064437;28;20048;-66
2023/06/10 11:23:26;;;;;;;1.88;1.50;;;;;;;;;;5071768;28;20048;-66
2023/06/10 11:26:09;;;;;;;4.95;1.83;;;;;;;;;;5070934;28;20044;-66
2023/06/10 11:28:38;;;;;;;3.38;1.73;;;;;;;;;;5065372;28;20044;-67
2023/06/10 11:31:06;;;;;;;2.33;1.83;;;;;;;;;;5069187;28;20085;-67
2023/06/10 11:33:39;;;;;;;2.67;1.77;;;;;;;;;;5071940;28;20044;-68
2023/06/10 11:36:08;;;;;;;1.83;1.40;;;;;;;;;;5057277;28;20048;-67
2023/06/10 11:38:37;;;;;;;2.38;1.50;;;;;;;;;;5065650;28;20041;-66
2023/06/10 11:41:06;;;;;;;1.88;1.30;;;;;;;;;;5071393;28;20049;-66
2023/06/10 11:43:34;;;;;;;1.50;1.02;;;;;;;;;;5071147;28;20044;-67
2023/06/10 11:46:03;;;;;;;2.53;1.60;;;;;;;;;;5070681;28;20045;-67
2023/06/10 11:48:33;;;;;;;2.22;1.30;;;;;;;;;;5067970;28;20041;-67
2023/06/10 11:51:06;;;;;;;3.45;1.55;;;;;;;;;;5071676;28;20098;-67
2023/06/10 11:53:35;;;;;;;3.55;1.38;;;;;;;;;;5071269;28;20056;-67
2023/06/10 11:56:03;;;;;;;1.83;1.42;;;;;;;;;;5070441;28;20052;-66
2023/06/10 11:58:31;;;;;;;2.05;1.50;;;;;;;;;;5070483;28;20106;-66
2023/06/10 12:01:01;;;;;;;1.77;1.25;;;;;;;;;;5070802;28;20052;-66
2023/06/10 12:03:37;;;;;;;1.77;1.20;;;;;;;;;;5070991;28;20055;-68
2023/06/10 12:06:08;;;;;;;2.33;1.30;;;;;;;;;;5070374;28;20044;-67
2023/06/10 12:08:42;;;;;;;2.20;1.40;;;;;;;;;;5065042;28;20504;-66
2023/06/10 12:11:11;;;;;;;2.17;1.58;;;;;;;;;;5065872;28;20048;-66
2023/06/10 12:13:48;;;;;;;2.30;1.63;;;;;;;;;;5071046;28;20083;-66
2023/06/10 12:16:17;;;;;;;2.53;1.50;;;;;;;;;;5069745;28;20060;-66
2023/06/10 12:18:46;;;;;;;3.35;1.52;;;;;;;;;;5064490;28;20114;-68
2023/06/10 12:21:19;;;;;;;1.98;1.30;;;;;;;;;;5068198;28;20064;-67
2023/06/10 12:24:07;;;;;;;3.13;1.45;;;;;;;;;;5070964;28;20071;-66
2023/06/10 12:26:36;;;;;;;1.77;1.25;;;;;;;;;;5069782;28;20071;-68
2023/06/10 12:29:14;;;;;;;2.17;1.08;;;;;;;;;;5063480;28;20390;-67
2023/06/10 12:31:55;;;;;;;2.63;1.85;;;;;;;;;;5070404;28;20045;-67
2023/06/10 12:34:29;;;;;;;2.10;1.45;;;;;;;;;;5065409;28;20132;-67
2023/06/10 12:36:59;;;;;;;2.25;1.60;;;;;;;;;;5056143;28;20041;-66
2023/06/10 12:39:27;;;;;;;2.38;1.60;;;;;;;;;;5070019;28;20503;-66
2023/06/10 12:41:56;;;;;;;2.22;1.40;;;;;;;;;;5070162;28;20079;-67
2023/06/10 12:44:31;;;;;;;3.20;1.45;;;;;;;;;;5070614;28;20060;-66
2023/06/10 12:46:59;;;;;;;2.55;1.65;;;;;;;;;;5054716;28;20080;-67
2023/06/10 12:49:28;;;;;;;2.75;2.25;;;;;;;;;;5068738;28;20417;-67
2023/06/10 12:51:56;;;;;;;3.30;2.00;;;;;;;;;;5070203;28;20106;-67
2023/06/10 12:54:26;;;;;;;3.30;1.88;;;;;;;;;;5070334;28;20089;-68
2023/06/10 12:56:54;;;;;;;2.67;1.75;;;;;;;;;;5069313;28;20057;-66
2023/06/10 12:59:23;;;;;;;2.88;1.98;;;;;;;;;;5059425;28;20053;-65
2023/06/10 13:01:52;;;;;;;3.08;2.03;;;;;;;;;;5068478;28;20538;-66
2023/06/10 13:04:21;;;;;;;3.00;1.98;;;;;;;;;;5070340;28;20057;-70
2023/06/10 13:06:50;;;;;;;4.65;2.33;;;;;;;;;;5068927;28;20052;-68
2023/06/10 13:09:18;;;;;;;3.20;2.00;;;;;;;;;;5069758;28;20533;-68
2023/06/10 13:11:48;;;;;;;3.97;2.03;;;;;;;;;;5056749;28;20045;-67
2023/06/10 13:14:16;;;;;;;2.38;1.65;;;;;;;;;;5069918;28;20094;-69
2023/06/10 13:16:46;;;;;;;2.42;1.92;;;;;;;;;;5069333;28;20056;-68
2023/06/10 13:19:14;;;;;;;2.38;2.03;;;;;;;;;;5061646;28;20057;-68
2023/06/10 13:21:42;;;;;;;2.65;2.10;;;;;;;;;;5070169;28;20044;-67
2023/06/10 13:24:11;;;;;;;3.17;1.83;;;;;;;;;;5069745;28;20048;-66
2023/06/10 13:26:40;;;;;;;3.42;1.70;;;;;;;;;;5069540;28;20052;-68
2023/06/10 13:29:13;;;;;;;2.35;1.90;;;;;;;;;;5063762;28;20118;-66
2023/06/10 13:31:42;;;;;;;3.23;2.00;;;;;;;;;;5068026;28;20483;-66
2023/06/10 13:34:11;;;;;;;2.63;1.80;;;;;;;;;;5062804;28;20481;-66
2023/06/10 13:36:39;;;;;;;3.00;1.95;;;;;;;;;;5060913;28;20048;-66
2023/06/10 13:39:08;;;;;;;2.72;1.52;;;;;;;;;;5066683;28;20125;-65
2023/06/10 13:41:36;;;;;;;2.22;1.58;;;;;;;;;;5069436;28;20075;-65
2023/06/10 13:44:04;;;;;;;2.22;1.77;;;;;;;;;;5069363;28;20058;-66
2023/06/10 13:46:35;;;;;;;2.80;1.85;;;;;;;;;;5069385;28;20532;-65
2023/06/10 13:49:03;;;;;;;2.90;1.92;;;;;;;;;;5069122;28;20088;-65
2023/06/10 13:51:31;;;;;;;3.05;2.08;;;;;;;;;;5069986;28;20044;-65
2023/06/10 13:54:00;;;;;;;3.50;1.90;;;;;;;;;;5069479;28;20501;-66
2023/06/10 13:56:28;;;;;;;2.75;1.80;;;;;;;;;;5068885;28;20045;-65
2023/06/10 13:58:56;;;;;;;3.95;1.98;;;;;;;;;;5063052;28;20080;-66
2023/06/10 14:01:25;;;;;;;3.10;1.90;;;;;;;;;;5067756;28;20045;-65
2023/06/10 14:03:55;;;;;;;3.28;1.90;;;;;;;;;;5073001;28;20055;-65
2023/06/10 14:06:23;;;;;;;3.17;1.98;;;;;;;;;;5072407;28;20041;-66
2023/06/10 14:08:51;;;;;;;3.17;2.13;;;;;;;;;;5067285;28;20049;-67
2023/06/10 14:11:20;;;;;;;2.38;1.75;;;;;;;;;;5069485;28;20052;-66
2023/06/10 14:13:49;;;;;;;2.30;1.83;;;;;;;;;;5072635;28;20106;-66
2023/06/10 14:16:17;;;;;;;3.72;2.17;;;;;;;;;;5072708;28;20076;-66
2023/06/10 14:18:45;;;;;;;2.65;2.20;;;;;;;;;;5068196;28;20067;-64
2023/06/10 14:21:15;;;;;;;4.88;2.25;;;;;;;;;;5070590;28;20048;-65
2023/06/10 14:23:44;;;;;;;1.80;1.48;;;;;;;;;;5072553;28;20490;-66
2023/06/10 14:26:12;;;;;;;2.47;1.70;;;;;;;;;;5072304;28;20052;-66
2023/06/10 14:28:40;;;;;;;2.13;1.65;;;;;;;;;;5069056;28;20102;-66
2023/06/10 14:31:09;;;;;;;2.40;1.30;;;;;;;;;;5071697;28;20045;-65
2023/06/10 14:33:37;;;;;;;2.45;1.60;;;;;;;;;;5073499;28;20041;-65
2023/06/10 14:36:06;;;;;;;3.30;1.60;;;;;;;;;;5058834;28;20087;-65
2023/06/10 14:38:36;;;;;;;1.85;1.42;;;;;;;;;;5069996;28;20482;-66
2023/06/10 14:41:04;;;;;;;2.38;1.80;;;;;;;;;;5072382;28;20397;-65
2023/06/10 14:43:33;;;;;;;2.35;1.70;;;;;;;;;;5072242;28;20098;-65
2023/06/10 14:46:01;;;;;;;3.35;1.65;;;;;;;;;;5071530;28;20048;-65
2023/06/10 14:48:29;;;;;;;2.85;1.77;;;;;;;;;;5072004;28;20060;-66
2023/06/10 14:50:58;;;;;;;3.05;1.70;;;;;;;;;;5064537;28;20044;-64
2023/06/10 14:53:26;;;;;;;3.08;1.90;;;;;;;;;;5072068;28;20425;-65
2023/06/10 14:55:56;;;;;;;2.65;1.73;;;;;;;;;;5072007;28;20048;-66